Aérodrome :
LOGIN :

S'inscrire | Disclaimer

   EN    FR    IT 

 










Légende :    VFR   VFR Marginal   IFR   IFR Intensif   IFR Très Intensif
Visi : 
Plafond : 
>= 8 km
>= 3000ft
5 à 8 km
1000 à 3000 ft
1500m à 5 km
500 à 1000 ft
800 à 1500m
200 à 500 ft
< 800m
< 200 ft
Symboles :   Orages  Brouillard  Fortes neiges  Fortes précipitations  Vent > 20 kt
SIGMETs :   Divers  Orages  Givrage  Turbulence  Onde Orograph.  Cendres Volcan.






- Altitude de l'aérodrome : 3 ft
- Code IATA : LWR


EHLW - Leuuwarden Air Base

DERNIER METAR :
  • 231955Z AUTO 02005KT 9999 OVC250 12/09 Q1022 BLU

METARs EXPIRÉS :
  • 231925Z AUTO 02006KT 340V040 9999 OVC260 14/09 Q1022 BLU
  • 231855Z AUTO 03006KT 9999 OVC250 14/09 Q1022 BLU
  • 231834Z AUTO 01007KT 350V050 9999 FEW024 OVC260 15/09 Q1022 BLU
  • 231825Z AUTO 01008KT 350V050 9999 SCT024 OVC260 15/09 Q1022 WHT
  • 231755Z AUTO 01007KT 340V040 9999 SCT026 OVC250 15/09 Q1022 BLU
  • 231725Z AUTO 03008KT 340V040 9999 FEW025 OVC260 15/09 Q1022 BLU

TAF TAF EHLW
Valide du 23 à 17h jusqu'au 24 à 05h UTC


231613Z 2317/2405 01007KT 9999 SCT024 BKN035



MET'MAP, la Météo Aéronautique d'un coup d'oeil ! - Copyright ORBIFLY Décembre 2007 - Disclaimer

ORBIFLY MET'MAP TEAM :

Programmation & Développement : Alexandra Zaïnal
Sur une idée originale de : Baudouin d'Aumeries
Assistance à la programmation : Marc-Olivier Méhu
Soutien technique & logistique : Manuel Goepfert

Contact : metmap@orbifly.com




SOURCES & CREDITS :

   NOAA